Polaris — JD2797 — position and weather

sailwx.info

Track history (hours):
 
Tides and Currents Weather Stations Pressure Air Temp Water Temp Dewpoint Dewpoint Depression Visibility Wind Speed Wind Dir Waves Ship Positions

Polaris

Last reported at 2017-Mar-21 10:11 UTC. Time now 2017-Mar-23 18:34 UTC.
Position N 35°19' E 139°38'.

Length 30 m; draft 2.6 m.

Type: Pilot. MMSI: 431000764.

Date/timePositionNaut miles runAvg speedWind from/ knotsBaromVisibWave heightAir tempDewpointWater temp
2017-Mar-21 10:11N 35°19' E 139°38'5 8.7
2017-Mar-21 09:33N 35°18' E 139°45'7 6.9
2017-Mar-21 08:33N 35°11' E 139°47'  
2017-Mar-18 23:24N 35°19' E 139°38'6 7.2
2017-Mar-18 22:33N 35°16' E 139°45'5 5.2
2017-Mar-18 21:34N 35°20' E 139°42'7 6.8
2017-Mar-18 20:33N 35°27' E 139°42'9 9.3
2017-Mar-18 19:33N 35°19' E 139°38'0 0.0
2017-Mar-18 18:33N 35°19' E 139°38'0 0.0
2017-Mar-18 17:33N 35°19' E 139°38'0 0.0
2017-Mar-18 16:33N 35°19' E 139°38'0 0.0
2017-Mar-18 15:29N 35°19' E 139°38'0 0.0
2017-Mar-18 14:33N 35°19' E 139°38'0 0.0
2017-Mar-18 13:33N 35°19' E 139°38'0 0.0
2017-Mar-18 12:33N 35°19' E 139°38'0 0.0
2017-Mar-18 11:33N 35°19' E 139°38'0 0.0
2017-Mar-18 10:33N 35°19' E 139°38'6 6.2
2017-Mar-18 09:34N 35°24' E 139°42'6 5.9
2017-Mar-18 08:34N 35°18' E 139°44'8 7.5
2017-Mar-18 07:33N 35°11' E 139°47'1010.0
2017-Mar-18 06:33N 35°19' E 139°38'  
2017-Mar-15 19:28N 35°19' E 139°38'8 9.1
2017-Mar-15 18:33N 35°13' E 139°46'1110.9
2017-Mar-15 17:34N 35°23' E 139°41'5 5.1
2017-Mar-15 16:33N 35°19' E 139°38'0 0.0
2017-Mar-15 15:33N 35°19' E 139°38'0 0.0
2017-Mar-15 14:30N 35°19' E 139°38'0 0.0
2017-Mar-15 13:33N 35°19' E 139°38'0 0.0
2017-Mar-15 12:33N 35°19' E 139°38'0 0.0
2017-Mar-15 11:33N 35°19' E 139°38'0 0.0
2017-Mar-15 10:32N 35°19' E 139°38'0 0.0
2017-Mar-15 09:32N 35°19' E 139°38'0 0.0
2017-Mar-15 08:33N 35°19' E 139°38'6 6.2
2017-Mar-15 07:33N 35°17' E 139°46'2 1.7
2017-Mar-15 06:33N 35°15' E 139°45'7 6.2
2017-Mar-15 05:28N 35°19' E 139°38'0 0.0
2017-Mar-15 04:25N 35°19' E 139°38'0 0.0
2017-Mar-15 03:31N 35°19' E 139°38'0 0.0
2017-Mar-15 02:32N 35°19' E 139°38'0 0.0
2017-Mar-15 01:33N 35°19' E 139°38'0 0.0
2017-Mar-15 00:32N 35°19' E 139°38'0 0.0
2017-Mar-14 23:27N 35°19' E 139°38'0 0.0
2017-Mar-14 22:31N 35°19' E 139°38'9 9.0
2017-Mar-14 21:33N 35°12' E 139°46'1110.8
2017-Mar-14 20:34N 35°23' E 139°42'1 0.7
2017-Mar-14 19:33N 35°22' E 139°41'4 0.1
2017-Mar-12 22:04N 35°19' E 139°38'611.5
2017-Mar-12 21:33N 35°16' E 139°45'6 5.6
2017-Mar-12 20:33N 35°21' E 139°42'9 9.0
2017-Mar-12 19:34N 35°29' E 139°47'1212.1
2017-Mar-12 18:33N 35°19' E 139°40'1 1.1
2017-Mar-12 17:34N 35°19' E 139°38'0 0.0
2017-Mar-12 16:34N 35°19' E 139°38'0 0.0
2017-Mar-12 15:33N 35°19' E 139°38'0 0.0
2017-Mar-12 14:33N 35°19' E 139°38'0 0.0
2017-Mar-12 13:33N 35°19' E 139°38'0 0.0
2017-Mar-12 12:33N 35°19' E 139°38'0 0.0
2017-Mar-12 11:31N 35°19' E 139°38'0 0.0
2017-Mar-12 10:31N 35°19' E 139°38'0 0.0
2017-Mar-12 09:17N 35°19' E 139°38'0 0.0
2017-Mar-12 08:33N 35°19' E 139°38'8 8.3
2017-Mar-12 07:33N 35°13' E 139°46'1110.7
2017-Mar-12 06:33N 35°23' E 139°41'5 5.0
2017-Mar-12 05:33N 35°19' E 139°38'0 0.0
2017-Mar-12 04:30N 35°19' E 139°38'0 0.0
2017-Mar-12 03:30N 35°19' E 139°38'0 0.0
2017-Mar-12 02:30N 35°19' E 139°38'0 0.0
2017-Mar-12 01:18N 35°19' E 139°38'0 0.0
2017-Mar-12 00:33N 35°19' E 139°38'0 0.0
2017-Mar-11 23:33N 35°19' E 139°38'7 7.2
2017-Mar-11 22:33N 35°14' E 139°45'7 7.0
2017-Mar-11 21:33N 35°21' E 139°42'6 5.6
2017-Mar-11 20:33N 35°26' E 139°42'9 8.6
2017-Mar-11 19:34N 35°19' E 139°38'0 0.0
2017-Mar-11 18:34N 35°19' E 139°38'0 0.0
2017-Mar-11 17:32N 35°19' E 139°38'0 0.0
2017-Mar-11 16:33N 35°19' E 139°38'0 0.0
2017-Mar-11 15:33N 35°19' E 139°38'0 0.0
2017-Mar-11 14:18N 35°19' E 139°38'3 4.3
2017-Mar-11 13:34N 35°20' E 139°42'4 3.5
2017-Mar-11 12:33N 35°18' E 139°45'8 8.0
2017-Mar-11 11:33N 35°10' E 139°48'6 6.0
2017-Mar-11 10:33N 35°16' E 139°46'  
Track history (hours):
 
Tides and Currents Weather Stations Pressure Air Temp Water Temp Dewpoint Dewpoint Depression Visibility Wind Speed Wind Dir Waves Ship Positions

Polaris

Last reported at 2017-Mar-21 10:11 UTC. Time now 2017-Mar-23 18:34 UTC.
Position N 35°19' E 139°38'.

Length 30 m; draft 2.6 m.

Type: Pilot. MMSI: 431000764.

Date/timePositionNaut miles runAvg speedWind from/ knotsBaromVisibWave heightAir tempDewpointWater temp
2017-Mar-21 10:11N 35°19' E 139°38'5 8.7
2017-Mar-21 09:33N 35°18' E 139°45'7 6.9
2017-Mar-21 08:33N 35°11' E 139°47'  
2017-Mar-18 23:24N 35°19' E 139°38'6 7.2
2017-Mar-18 22:33N 35°16' E 139°45'5 5.2
2017-Mar-18 21:34N 35°20' E 139°42'7 6.8
2017-Mar-18 20:33N 35°27' E 139°42'9 9.3
2017-Mar-18 19:33N 35°19' E 139°38'0 0.0
2017-Mar-18 18:33N 35°19' E 139°38'0 0.0
2017-Mar-18 17:33N 35°19' E 139°38'0 0.0
2017-Mar-18 16:33N 35°19' E 139°38'0 0.0
2017-Mar-18 15:29N 35°19' E 139°38'0 0.0
2017-Mar-18 14:33N 35°19' E 139°38'0 0.0
2017-Mar-18 13:33N 35°19' E 139°38'0 0.0
2017-Mar-18 12:33N 35°19' E 139°38'0 0.0
2017-Mar-18 11:33N 35°19' E 139°38'0 0.0
2017-Mar-18 10:33N 35°19' E 139°38'6 6.2
2017-Mar-18 09:34N 35°24' E 139°42'6 5.9
2017-Mar-18 08:34N 35°18' E 139°44'8 7.5
2017-Mar-18 07:33N 35°11' E 139°47'1010.0
2017-Mar-18 06:33N 35°19' E 139°38'  
2017-Mar-15 19:28N 35°19' E 139°38'8 9.1
2017-Mar-15 18:33N 35°13' E 139°46'1110.9
2017-Mar-15 17:34N 35°23' E 139°41'5 5.1
2017-Mar-15 16:33N 35°19' E 139°38'0 0.0
2017-Mar-15 15:33N 35°19' E 139°38'0 0.0
2017-Mar-15 14:30N 35°19' E 139°38'0 0.0
2017-Mar-15 13:33N 35°19' E 139°38'0 0.0
2017-Mar-15 12:33N 35°19' E 139°38'0 0.0
2017-Mar-15 11:33N 35°19' E 139°38'0 0.0
2017-Mar-15 10:32N 35°19' E 139°38'0 0.0
2017-Mar-15 09:32N 35°19' E 139°38'0 0.0
2017-Mar-15 08:33N 35°19' E 139°38'6 6.2
2017-Mar-15 07:33N 35°17' E 139°46'2 1.7
2017-Mar-15 06:33N 35°15' E 139°45'7 6.2
2017-Mar-15 05:28N 35°19' E 139°38'0 0.0
2017-Mar-15 04:25N 35°19' E 139°38'0 0.0
2017-Mar-15 03:31N 35°19' E 139°38'0 0.0
2017-Mar-15 02:32N 35°19' E 139°38'0 0.0
2017-Mar-15 01:33N 35°19' E 139°38'0 0.0
2017-Mar-15 00:32N 35°19' E 139°38'0 0.0
2017-Mar-14 23:27N 35°19' E 139°38'0 0.0
2017-Mar-14 22:31N 35°19' E 139°38'9 9.0
2017-Mar-14 21:33N 35°12' E 139°46'1110.8
2017-Mar-14 20:34N 35°23' E 139°42'1 0.7
2017-Mar-14 19:33N 35°22' E 139°41'4 0.1
2017-Mar-12 22:04N 35°19' E 139°38'611.5
2017-Mar-12 21:33N 35°16' E 139°45'6 5.6
2017-Mar-12 20:33N 35°21' E 139°42'9 9.0
2017-Mar-12 19:34N 35°29' E 139°47'1212.1
2017-Mar-12 18:33N 35°19' E 139°40'1 1.1
2017-Mar-12 17:34N 35°19' E 139°38'0 0.0
2017-Mar-12 16:34N 35°19' E 139°38'0 0.0
2017-Mar-12 15:33N 35°19' E 139°38'0 0.0
2017-Mar-12 14:33N 35°19' E 139°38'0 0.0
2017-Mar-12 13:33N 35°19' E 139°38'0 0.0
2017-Mar-12 12:33N 35°19' E 139°38'0 0.0
2017-Mar-12 11:31N 35°19' E 139°38'0 0.0
2017-Mar-12 10:31N 35°19' E 139°38'0 0.0
2017-Mar-12 09:17N 35°19' E 139°38'0 0.0
2017-Mar-12 08:33N 35°19' E 139°38'8 8.3
2017-Mar-12 07:33N 35°13' E 139°46'1110.7
2017-Mar-12 06:33N 35°23' E 139°41'5 5.0
2017-Mar-12 05:33N 35°19' E 139°38'0 0.0
2017-Mar-12 04:30N 35°19' E 139°38'0 0.0
2017-Mar-12 03:30N 35°19' E 139°38'0 0.0
2017-Mar-12 02:30N 35°19' E 139°38'0 0.0
2017-Mar-12 01:18N 35°19' E 139°38'0 0.0
2017-Mar-12 00:33N 35°19' E 139°38'0 0.0
2017-Mar-11 23:33N 35°19' E 139°38'7 7.2
2017-Mar-11 22:33N 35°14' E 139°45'7 7.0
2017-Mar-11 21:33N 35°21' E 139°42'6 5.6
2017-Mar-11 20:33N 35°26' E 139°42'9 8.6
2017-Mar-11 19:34N 35°19' E 139°38'0 0.0
2017-Mar-11 18:34N 35°19' E 139°38'0 0.0
2017-Mar-11 17:32N 35°19' E 139°38'0 0.0
2017-Mar-11 16:33N 35°19' E 139°38'0 0.0
2017-Mar-11 15:33N 35°19' E 139°38'0 0.0
2017-Mar-11 14:18N 35°19' E 139°38'3 4.3
2017-Mar-11 13:34N 35°20' E 139°42'4 3.5
2017-Mar-11 12:33N 35°18' E 139°45'8 8.0
2017-Mar-11 11:33N 35°10' E 139°48'6 6.0
2017-Mar-11 10:33N 35°16' E 139°46'  

Dump ship's entire track history